createdAt,value
2018-03-15T00:00:08.075Z,85.20
2018-03-15T00:02:37.127Z,85.30
2018-03-15T00:05:06.208Z,85.20
2018-03-15T00:07:35.253Z,84.90
2018-03-15T00:10:04.337Z,85.00
2018-03-15T00:12:33.536Z,85.20
2018-03-15T00:15:02.588Z,85.50
2018-03-15T00:17:31.656Z,85.60
2018-03-15T00:20:00.693Z,86.00
2018-03-15T00:22:29.817Z,86.30
2018-03-15T00:24:58.868Z,86.50
2018-03-15T00:27:27.951Z,86.60
2018-03-15T00:29:56.992Z,87.40
2018-03-15T00:32:26.066Z,88.40
2018-03-15T00:34:55.122Z,88.70
2018-03-15T00:37:24.972Z,90.00
2018-03-15T00:39:54.012Z,90.00
2018-03-15T00:42:23.103Z,90.40
2018-03-15T00:44:52.175Z,90.50
2018-03-15T00:47:21.269Z,90.50
2018-03-15T00:49:50.342Z,90.50
2018-03-15T00:52:19.784Z,90.70
2018-03-15T00:55:02.724Z,90.60
2018-03-15T00:57:33.363Z,90.70
2018-03-15T01:00:02.391Z,90.70
2018-03-15T01:02:31.443Z,91.00
2018-03-15T01:05:00.555Z,90.90
2018-03-15T01:07:29.663Z,90.90
2018-03-15T01:09:58.723Z,91.00
2018-03-15T01:12:27.820Z,91.00
2018-03-15T01:14:56.859Z,90.90
2018-03-15T01:17:25.893Z,90.90
2018-03-15T01:19:55.076Z,90.90
2018-03-15T01:22:24.135Z,90.90
2018-03-15T01:24:53.223Z,91.10
2018-03-15T01:27:22.899Z,91.30
2018-03-15T01:29:51.992Z,91.50
2018-03-15T01:32:21.968Z,91.50
2018-03-15T01:34:51.033Z,91.50
2018-03-15T01:37:20.068Z,91.50
2018-03-15T01:39:49.258Z,91.40
2018-03-15T01:42:18.293Z,91.30
2018-03-15T01:44:47.340Z,91.30
2018-03-15T01:47:16.415Z,91.40
2018-03-15T01:49:45.477Z,91.40
2018-03-15T01:52:14.516Z,91.30
2018-03-15T01:54:43.600Z,91.60
2018-03-15T01:57:12.660Z,91.40
2018-03-15T01:59:41.725Z,91.50
2018-03-15T02:02:10.816Z,91.40
2018-03-15T02:04:39.908Z,91.40
2018-03-15T02:07:08.955Z,91.60
2018-03-15T02:09:39.422Z,91.50
2018-03-15T02:12:08.453Z,91.50
2018-03-15T02:14:37.500Z,91.50
2018-03-15T02:17:06.571Z,91.50
2018-03-15T02:19:35.612Z,91.60
2018-03-15T02:22:05.183Z,91.50
2018-03-15T02:24:34.514Z,91.50
2018-03-15T02:27:03.576Z,91.50
2018-03-15T02:29:32.651Z,91.40
2018-03-15T02:32:03.731Z,91.30
2018-03-15T02:34:32.775Z,91.30
2018-03-15T02:37:01.835Z,91.20
2018-03-15T02:39:30.902Z,91.10
2018-03-15T02:41:59.947Z,91.00
2018-03-15T02:44:29.023Z,91.00
2018-03-15T02:46:58.103Z,90.90
2018-03-15T02:49:27.853Z,90.40
2018-03-15T02:51:56.948Z,90.30
2018-03-15T02:54:26.004Z,90.20
2018-03-15T02:56:55.041Z,90.00
2018-03-15T02:59:25.874Z,90.30
2018-03-15T03:01:54.963Z,90.30
2018-03-15T03:04:24.005Z,90.40
2018-03-15T03:06:53.131Z,90.20
2018-03-15T03:09:22.217Z,90.20
2018-03-15T03:11:51.746Z,90.20
2018-03-15T03:14:20.859Z,90.30
2018-03-15T03:16:49.920Z,90.80
2018-03-15T03:19:18.985Z,90.50
2018-03-15T03:21:48.049Z,90.50
2018-03-15T03:24:17.135Z,90.60
2018-03-15T03:26:46.190Z,90.60
2018-03-15T03:29:15.273Z,90.60
2018-03-15T03:31:45.040Z,90.60
2018-03-15T03:34:14.071Z,90.90
2018-03-15T03:36:43.143Z,90.50
2018-03-15T03:39:12.948Z,90.70
2018-03-15T03:41:42.041Z,90.70
2018-03-15T03:44:11.867Z,90.90
2018-03-15T03:46:40.947Z,90.90
2018-03-15T03:49:10.781Z,90.80
2018-03-15T03:51:39.871Z,90.80
2018-03-15T03:54:09.248Z,90.70
2018-03-15T03:56:38.316Z,90.90
2018-03-15T03:59:07.383Z,90.50
2018-03-15T04:01:36.452Z,90.50
2018-03-15T04:04:05.631Z,90.50
2018-03-15T04:06:36.151Z,90.60
2018-03-15T04:09:05.216Z,90.60
2018-03-15T04:11:34.258Z,90.60
2018-03-15T04:14:04.093Z,90.60
2018-03-15T04:16:33.181Z,90.60
2018-03-15T04:19:02.227Z,90.70
2018-03-15T04:21:31.284Z,90.70
2018-03-15T04:24:00.331Z,90.70
2018-03-15T04:26:29.425Z,90.60
2018-03-15T04:28:58.472Z,90.60
2018-03-15T04:31:27.612Z,90.50
2018-03-15T04:33:56.648Z,90.50
2018-03-15T04:36:25.743Z,90.50
2018-03-15T04:38:54.863Z,90.30
2018-03-15T04:41:23.973Z,90.30
2018-03-15T04:43:53.029Z,90.50
2018-03-15T04:46:22.087Z,90.50
2018-03-15T04:48:51.140Z,90.60
2018-03-15T04:51:20.360Z,90.60
2018-03-15T04:53:49.401Z,90.70
2018-03-15T04:56:18.444Z,90.80
2018-03-15T04:58:47.545Z,90.90
2018-03-15T05:01:16.578Z,91.00
2018-03-15T05:03:45.670Z,91.00
2018-03-15T05:06:15.516Z,90.80
2018-03-15T05:08:44.576Z,90.80
2018-03-15T05:11:13.611Z,90.90
2018-03-15T05:13:42.688Z,90.90
2018-03-15T05:16:11.725Z,90.90
2018-03-15T05:18:40.792Z,91.00
2018-03-15T05:21:09.845Z,91.30
2018-03-15T05:23:38.884Z,91.00
2018-03-15T05:26:08.305Z,91.10
2018-03-15T05:28:38.258Z,90.90
2018-03-15T05:31:07.292Z,90.70
2018-03-15T05:33:36.364Z,90.80
2018-03-15T05:36:05.469Z,90.80
2018-03-15T05:38:34.511Z,90.80
2018-03-15T05:41:03.551Z,90.70
2018-03-15T05:43:32.630Z,90.80
2018-03-15T05:46:01.667Z,90.80
2018-03-15T05:48:30.710Z,90.90
2018-03-15T05:51:00.088Z,91.00
2018-03-15T05:53:29.144Z,91.00
2018-03-15T05:55:58.209Z,90.90
2018-03-15T05:58:27.987Z,90.80
2018-03-15T06:00:57.031Z,91.00
2018-03-15T06:03:26.109Z,91.00
2018-03-15T06:05:55.528Z,90.70
2018-03-15T06:08:24.590Z,90.60
2018-03-15T06:10:53.658Z,90.70
2018-03-15T06:13:23.597Z,90.90
2018-03-15T06:15:53.404Z,91.00
2018-03-15T06:18:23.012Z,91.30
2018-03-15T06:20:52.139Z,91.00
2018-03-15T06:23:21.642Z,91.10
2018-03-15T06:25:50.678Z,91.10
2018-03-15T06:28:19.876Z,91.20
2018-03-15T06:30:49.022Z,91.20
2018-03-15T06:33:18.069Z,91.20
2018-03-15T06:35:47.143Z,91.30
2018-03-15T06:38:16.214Z,91.40
2018-03-15T06:40:46.140Z,91.40
2018-03-15T06:43:16.412Z,91.50
2018-03-15T06:45:45.458Z,91.60
2018-03-15T06:48:14.547Z,91.30
2018-03-15T06:50:43.599Z,91.40
2018-03-15T06:53:12.715Z,91.30
2018-03-15T06:55:42.181Z,91.20
2018-03-15T06:58:11.225Z,91.20
2018-03-15T07:00:40.308Z,91.30
2018-03-15T07:03:10.116Z,91.10
2018-03-15T07:05:39.963Z,91.10
2018-03-15T07:08:09.016Z,91.00
2018-03-15T07:10:38.860Z,90.90
2018-03-15T07:13:08.016Z,90.90
2018-03-15T07:15:37.063Z,90.90
2018-03-15T07:18:06.127Z,91.00
2018-03-15T07:20:35.984Z,90.70
2018-03-15T07:23:05.024Z,90.70
2018-03-15T07:25:34.840Z,90.80
2018-03-15T07:28:04.702Z,90.50
2018-03-15T07:30:33.731Z,90.40
2018-03-15T07:33:03.249Z,90.50
2018-03-15T07:35:33.562Z,90.70
2018-03-15T07:38:02.610Z,90.70
2018-03-15T07:40:31.652Z,90.80
2018-03-15T07:43:01.515Z,90.80
2018-03-15T07:45:30.563Z,90.70
2018-03-15T07:48:00.399Z,90.80
2018-03-15T07:50:30.251Z,90.90
2018-03-15T07:52:59.295Z,90.90
2018-03-15T07:55:29.209Z,91.20
2018-03-15T07:57:59.288Z,91.30
2018-03-15T08:00:28.445Z,91.10
2018-03-15T08:02:57.791Z,90.90
2018-03-15T08:05:28.165Z,91.00
2018-03-15T08:07:57.534Z,90.80
2018-03-15T08:10:28.760Z,90.00
2018-03-15T08:12:57.817Z,90.00
2018-03-15T08:15:28.116Z,89.60
2018-03-15T08:17:57.177Z,87.70
2018-03-15T08:20:26.233Z,87.60
2018-03-15T08:22:55.276Z,87.80
2018-03-15T08:25:25.931Z,85.20
2018-03-15T08:27:55.742Z,85.20
2018-03-15T08:30:24.814Z,85.20
2018-03-15T08:32:54.733Z,84.50
2018-03-15T08:35:24.013Z,84.40
2018-03-15T08:37:53.083Z,84.40
2018-03-15T08:40:22.175Z,83.00
2018-03-15T08:42:51.216Z,82.00
2018-03-15T08:45:21.136Z,81.40
2018-03-15T08:47:50.992Z,82.00
2018-03-15T08:50:20.133Z,82.70
2018-03-15T08:52:49.230Z,81.90
2018-03-15T08:55:18.426Z,81.60
2018-03-15T08:57:47.476Z,80.10
2018-03-15T09:00:17.315Z,81.10
2018-03-15T09:02:46.388Z,81.10
2018-03-15T09:05:15.443Z,81.70
2018-03-15T09:07:45.317Z,82.30
2018-03-15T09:10:14.367Z,82.30
2018-03-15T09:12:43.438Z,82.70
2018-03-15T09:15:12.588Z,81.90
2018-03-15T09:17:41.632Z,82.90
2018-03-15T09:20:11.471Z,81.00
2018-03-15T09:22:40.655Z,81.00
2018-03-15T09:25:09.699Z,80.40
2018-03-15T09:27:38.739Z,81.60
2018-03-15T09:30:07.821Z,81.60
2018-03-15T09:32:38.096Z,80.20
2018-03-15T09:35:07.138Z,80.20
2018-03-15T09:37:36.985Z,77.60
2018-03-15T09:40:06.045Z,77.60
2018-03-15T09:42:35.867Z,75.90
2018-03-15T09:45:05.709Z,77.30
2018-03-15T09:47:34.761Z,77.30
2018-03-15T09:50:03.924Z,77.60
2018-03-15T09:52:33.666Z,77.60
2018-03-15T09:55:03.521Z,77.60
2018-03-15T09:57:32.609Z,74.00
2018-03-15T10:00:01.730Z,73.10
2018-03-15T10:02:31.399Z,70.00
2018-03-15T10:05:01.332Z,69.90
2018-03-15T10:07:30.398Z,70.70
2018-03-15T10:09:59.482Z,69.90
2018-03-15T10:12:29.351Z,68.50
2018-03-15T10:14:58.411Z,68.40
2018-03-15T10:17:27.497Z,68.70
2018-03-15T10:19:56.598Z,68.00
2018-03-15T10:22:25.681Z,68.70
2018-03-15T10:24:54.728Z,67.30
2018-03-15T10:27:23.811Z,70.60
2018-03-15T10:29:53.376Z,69.10
2018-03-15T10:32:22.436Z,65.80
2018-03-15T10:34:57.016Z,62.20
2018-03-15T10:37:26.905Z,62.90
2018-03-15T10:39:56.813Z,57.20
2018-03-15T10:42:26.663Z,58.30
2018-03-15T10:44:57.131Z,58.20
2018-03-15T10:47:28.084Z,60.30
2018-03-15T10:49:57.144Z,54.30
2018-03-15T10:52:26.497Z,56.10
2018-03-15T10:54:56.942Z,55.40
2018-03-15T10:57:26.068Z,55.30
2018-03-15T10:59:56.812Z,54.60
2018-03-15T11:02:31.327Z,52.20
2018-03-15T11:05:01.257Z,53.00
2018-03-15T11:07:30.392Z,52.00
2018-03-15T11:09:59.466Z,51.00
2018-03-15T11:12:28.627Z,49.20
2018-03-15T11:14:57.736Z,47.80
2018-03-15T11:17:27.119Z,48.10
2018-03-15T11:19:57.323Z,48.20
2018-03-15T11:22:27.507Z,49.00
2018-03-15T11:24:57.353Z,41.80
2018-03-15T11:27:27.136Z,41.70
2018-03-15T11:29:57.673Z,42.30
2018-03-15T11:32:26.839Z,42.30
2018-03-15T11:34:56.017Z,40.80
2018-03-15T11:37:25.124Z,41.40
2018-03-15T11:39:54.301Z,39.80
2018-03-15T11:42:23.414Z,41.50
2018-03-15T11:44:53.128Z,42.40
2018-03-15T11:47:22.182Z,42.70
2018-03-15T11:49:51.231Z,42.40
2018-03-15T11:52:21.091Z,40.00
2018-03-15T11:54:51.041Z,39.90
2018-03-15T11:57:21.102Z,40.10
2018-03-15T11:59:51.539Z,38.50
2018-03-15T12:02:21.493Z,38.50
2018-03-15T12:04:52.163Z,39.10
2018-03-15T12:07:21.281Z,39.40
2018-03-15T12:09:50.366Z,40.40
2018-03-15T12:12:19.459Z,41.50
2018-03-15T12:14:48.612Z,42.70
2018-03-15T12:17:17.771Z,43.60
2018-03-15T12:19:46.815Z,44.80
2018-03-15T12:22:17.864Z,43.90
2018-03-15T12:24:46.933Z,44.40
2018-03-15T12:27:16.024Z,43.70
2018-03-15T12:29:45.073Z,44.50
2018-03-15T12:32:14.159Z,44.80
2018-03-15T12:34:44.011Z,42.40
2018-03-15T12:37:13.060Z,42.30
2018-03-15T12:39:42.927Z,39.90
2018-03-15T12:42:12.272Z,39.80
2018-03-15T12:44:42.180Z,39.90
2018-03-15T12:47:11.275Z,39.40
2018-03-15T12:49:41.120Z,39.20
2018-03-15T12:52:10.227Z,39.20
2018-03-15T12:54:39.907Z,38.50
2018-03-15T12:57:08.986Z,41.70
2018-03-15T12:59:38.838Z,45.90
2018-03-15T13:02:07.916Z,45.20
2018-03-15T13:04:38.507Z,47.10
2018-03-15T13:07:08.427Z,48.90
2018-03-15T13:09:37.528Z,49.80
2018-03-15T13:12:06.579Z,50.70
2018-03-15T13:14:35.640Z,51.50
2018-03-15T13:17:05.484Z,52.50
2018-03-15T13:19:34.595Z,52.50
2018-03-15T13:22:03.690Z,53.00
2018-03-15T13:24:32.764Z,53.80
2018-03-15T13:27:01.895Z,54.30
2018-03-15T13:29:30.907Z,54.30
2018-03-15T13:32:00.004Z,53.70
2018-03-15T13:37:03.287Z,54.50
2018-03-15T13:39:32.322Z,55.20
2018-03-15T13:42:01.446Z,55.90
2018-03-15T13:44:30.562Z,55.90
2018-03-15T13:46:59.641Z,56.10
2018-03-15T13:49:28.858Z,55.70
2018-03-15T13:51:58.361Z,56.00
2018-03-15T13:54:28.136Z,56.50
2018-03-15T13:56:57.212Z,56.20
2018-03-15T13:59:27.002Z,57.20
2018-03-15T14:01:56.094Z,57.20
2018-03-15T14:04:25.263Z,58.20
2018-03-15T14:06:54.336Z,58.60
2018-03-15T14:09:23.383Z,58.80
2018-03-15T14:11:52.498Z,58.60
2018-03-15T14:14:22.308Z,59.10
2018-03-15T14:16:52.124Z,58.70
2018-03-15T14:19:21.935Z,58.50
2018-03-15T14:21:52.662Z,58.80
2018-03-15T14:24:22.490Z,59.00
2018-03-15T14:26:51.517Z,59.00
2018-03-15T14:29:20.633Z,58.80
2018-03-15T14:31:49.744Z,58.90
2018-03-15T14:34:18.835Z,58.80
2018-03-15T14:36:47.902Z,58.10
2018-03-15T14:39:16.936Z,57.70
2018-03-15T14:41:46.785Z,58.30
2018-03-15T14:44:16.073Z,58.30
2018-03-15T14:46:45.084Z,58.10
2018-03-15T14:49:14.142Z,58.30
2018-03-15T14:51:43.945Z,58.30
2018-03-15T14:54:13.934Z,58.30
2018-03-15T14:56:43.048Z,58.30
2018-03-15T14:59:12.091Z,58.10
2018-03-15T15:01:41.173Z,58.40
2018-03-15T15:04:11.002Z,57.70
2018-03-15T15:06:40.064Z,57.70
2018-03-15T15:09:09.897Z,57.40
2018-03-15T15:11:39.627Z,57.40
2018-03-15T15:14:08.775Z,57.40
2018-03-15T15:16:37.827Z,57.10
2018-03-15T15:19:06.898Z,57.70
2018-03-15T15:21:35.919Z,57.50
2018-03-15T15:24:04.946Z,58.40
2018-03-15T15:26:34.051Z,58.60
2018-03-15T15:29:03.911Z,57.80
2018-03-15T15:31:33.000Z,57.80
2018-03-15T15:34:02.853Z,57.70
2018-03-15T15:36:31.877Z,57.80
2018-03-15T15:39:00.950Z,57.70
2018-03-15T15:41:30.163Z,58.60
2018-03-15T15:43:59.965Z,58.50
2018-03-15T15:46:29.002Z,58.50
2018-03-15T15:48:58.132Z,58.60
2018-03-15T15:51:27.153Z,58.70
2018-03-15T15:53:56.967Z,59.20
2018-03-15T15:56:26.840Z,59.60
2018-03-15T15:58:55.865Z,59.50
2018-03-15T16:01:25.693Z,60.20
2018-03-15T16:03:54.823Z,61.20
2018-03-15T16:06:23.862Z,61.60
2018-03-15T16:08:52.885Z,61.40
2018-03-15T16:11:22.050Z,61.80
2018-03-15T16:13:51.080Z,62.80
2018-03-15T16:16:20.184Z,63.20
2018-03-15T16:18:49.361Z,63.30
2018-03-15T16:21:19.169Z,63.90
2018-03-15T16:23:48.978Z,64.00
2018-03-15T16:26:18.787Z,64.70
2018-03-15T16:28:48.670Z,65.00
2018-03-15T16:31:17.861Z,65.00
2018-03-15T16:33:46.849Z,65.50
2018-03-15T16:36:15.947Z,65.80
2018-03-15T16:38:44.980Z,66.40
2018-03-15T16:41:14.815Z,66.90
2018-03-15T16:43:43.846Z,66.90
2018-03-15T16:46:12.919Z,67.20
2018-03-15T16:48:41.960Z,67.40
2018-03-15T16:51:11.496Z,67.90
2018-03-15T16:53:40.518Z,68.20
2018-03-15T16:56:09.658Z,68.40
2018-03-15T16:58:38.665Z,68.40
2018-03-15T17:01:08.467Z,68.70
2018-03-15T17:03:37.545Z,68.60
2018-03-15T17:06:06.592Z,68.70
2018-03-15T17:08:35.729Z,69.00
2018-03-15T17:11:04.752Z,69.50
2018-03-15T17:13:33.794Z,69.70
2018-03-15T17:16:02.860Z,69.70
2018-03-15T17:18:31.914Z,70.20
2018-03-15T17:21:00.984Z,70.50
2018-03-15T17:23:30.018Z,70.40
2018-03-15T17:25:59.896Z,71.50
2018-03-15T17:28:29.006Z,71.40
2018-03-15T17:30:58.039Z,71.20
2018-03-15T17:33:27.097Z,71.40
2018-03-15T17:35:56.243Z,71.80
2018-03-15T17:38:26.044Z,71.20
2018-03-15T17:40:55.084Z,71.20
2018-03-15T17:43:24.228Z,70.90
2018-03-15T17:45:54.042Z,71.30
2018-03-15T17:48:23.928Z,71.60
2018-03-15T17:50:57.304Z,71.50
2018-03-15T17:53:29.415Z,72.00
2018-03-15T17:55:59.632Z,72.30
2018-03-15T17:58:28.698Z,72.30
2018-03-15T18:00:58.787Z,72.30
2018-03-15T18:03:28.114Z,72.30
2018-03-15T18:05:58.627Z,72.70
2018-03-15T18:08:28.858Z,73.50
2018-03-15T18:10:58.854Z,73.70
2018-03-15T18:13:28.265Z,73.70
2018-03-15T18:15:57.749Z,73.90
2018-03-15T18:18:28.662Z,73.80
2018-03-15T18:20:58.928Z,73.80
2018-03-15T18:23:29.018Z,73.80
2018-03-15T18:25:59.219Z,74.20
2018-03-15T18:28:29.432Z,74.20
2018-03-15T18:30:59.594Z,74.30
2018-03-15T18:33:29.222Z,74.40
2018-03-15T18:35:58.507Z,74.40
2018-03-15T18:38:30.105Z,74.70
2018-03-15T18:41:00.848Z,74.80
2018-03-15T18:43:30.108Z,75.10
2018-03-15T18:45:59.454Z,74.90
2018-03-15T18:48:30.085Z,75.40
2018-03-15T18:51:00.274Z,75.00
2018-03-15T18:53:30.382Z,75.10
2018-03-15T18:55:59.501Z,75.50
2018-03-15T18:58:30.339Z,75.40
2018-03-15T19:01:03.688Z,75.60
2018-03-15T19:03:32.885Z,75.60
2018-03-15T19:06:02.600Z,75.70
2018-03-15T19:08:32.564Z,76.20
2018-03-15T19:11:02.589Z,76.20
2018-03-15T19:13:31.780Z,76.60
2018-03-15T19:16:01.660Z,76.60
2018-03-15T19:18:31.807Z,76.60
2018-03-15T19:21:00.976Z,76.90
2018-03-15T19:23:30.133Z,77.10
2018-03-15T19:26:00.200Z,77.70
2018-03-15T19:28:29.361Z,77.60
2018-03-15T19:30:58.604Z,77.90
2018-03-15T19:33:27.836Z,78.60
2018-03-15T19:35:57.855Z,78.70
2018-03-15T19:38:27.878Z,79.30
2018-03-15T19:40:57.882Z,79.60
2018-03-15T19:43:28.013Z,80.00
2018-03-15T19:45:58.109Z,80.00
2018-03-15T19:48:28.323Z,80.00
2018-03-15T19:50:57.726Z,80.00
2018-03-15T19:53:28.132Z,80.00
2018-03-15T19:55:57.464Z,79.90
2018-03-15T19:58:27.094Z,79.60
2018-03-15T20:00:57.286Z,79.70
2018-03-15T20:03:26.694Z,79.70
2018-03-15T20:05:56.039Z,79.70
2018-03-15T20:08:25.340Z,80.00
2018-03-15T20:10:54.619Z,80.00
2018-03-15T20:13:24.769Z,80.50
2018-03-15T20:15:54.028Z,80.50
2018-03-15T20:18:24.032Z,80.40
2018-03-15T20:20:53.289Z,80.40
2018-03-15T20:23:28.091Z,80.40
2018-03-15T20:25:57.956Z,80.50
2018-03-15T20:28:32.432Z,80.50
2018-03-15T20:31:01.664Z,80.30
2018-03-15T20:33:36.361Z,80.40
2018-03-15T20:36:06.335Z,80.50
2018-03-15T20:38:35.449Z,80.30
2018-03-15T20:41:10.955Z,80.50
2018-03-15T20:43:40.012Z,80.30
2018-03-15T20:46:15.222Z,80.50
2018-03-15T20:48:51.310Z,81.80
2018-03-15T20:51:20.407Z,81.70
2018-03-15T20:53:49.532Z,81.60
2018-03-15T20:56:18.577Z,81.60
2018-03-15T20:58:47.653Z,81.50
2018-03-15T21:01:16.709Z,81.60
2018-03-15T21:03:45.774Z,81.60
2018-03-15T21:06:14.843Z,81.50
2018-03-15T21:08:44.552Z,81.70
2018-03-15T21:11:13.637Z,81.50
2018-03-15T21:13:43.494Z,81.60
2018-03-15T21:16:12.586Z,81.60
2018-03-15T21:18:41.668Z,81.70
2018-03-15T21:21:10.713Z,81.70
2018-03-15T21:23:39.790Z,81.70
2018-03-15T21:26:08.840Z,81.90
2018-03-15T21:28:37.975Z,82.40
2018-03-15T21:31:07.005Z,83.40
2018-03-15T21:33:36.834Z,84.10
2018-03-15T21:36:05.947Z,84.10
2018-03-15T21:38:35.011Z,84.50
2018-03-15T21:41:04.043Z,85.10
2018-03-15T21:43:33.120Z,84.70
2018-03-15T21:46:02.167Z,84.50
2018-03-15T21:48:31.256Z,84.80
2018-03-15T21:51:00.319Z,85.30
2018-03-15T21:53:29.407Z,85.70
2018-03-15T21:55:58.485Z,85.90
2018-03-15T21:58:27.585Z,86.10
2018-03-15T22:00:56.627Z,86.10
2018-03-15T22:03:25.843Z,86.80
2018-03-15T22:05:54.886Z,86.80
2018-03-15T22:08:23.971Z,87.30
2018-03-15T22:10:53.015Z,88.40
2018-03-15T22:13:22.095Z,87.70
2018-03-15T22:15:51.131Z,88.40
2018-03-15T22:18:20.225Z,88.20
2018-03-15T22:20:50.035Z,89.40
2018-03-15T22:23:20.010Z,89.40
2018-03-15T22:25:49.035Z,89.40
2018-03-15T22:28:18.103Z,89.40
2018-03-15T22:30:47.172Z,89.50
2018-03-15T22:33:16.206Z,89.80
2018-03-15T22:35:45.265Z,90.00
2018-03-15T22:38:14.321Z,90.20
2018-03-15T22:40:44.227Z,90.60
2018-03-15T22:43:13.292Z,90.50
2018-03-15T22:45:42.370Z,90.60
2018-03-15T22:48:12.234Z,90.70
2018-03-15T22:50:42.034Z,90.80
2018-03-15T22:53:11.929Z,90.80
2018-03-15T22:55:40.970Z,90.80
2018-03-15T22:58:10.002Z,90.80
2018-03-15T23:00:39.099Z,90.90
2018-03-15T23:03:08.133Z,90.70
2018-03-15T23:05:37.237Z,90.70
2018-03-15T23:08:07.119Z,90.60
2018-03-15T23:10:36.194Z,90.60
2018-03-15T23:13:05.230Z,90.70
2018-03-15T23:15:35.038Z,91.00
2018-03-15T23:18:04.873Z,91.00
2018-03-15T23:20:34.668Z,90.90
2018-03-15T23:23:05.429Z,91.00
2018-03-15T23:25:34.492Z,91.00
2018-03-15T23:28:03.750Z,91.00
2018-03-15T23:30:32.794Z,90.90
2018-03-15T23:33:03.417Z,90.90
2018-03-15T23:35:33.254Z,90.90
2018-03-15T23:38:02.289Z,90.90
2018-03-15T23:40:31.360Z,91.00
2018-03-15T23:43:00.400Z,90.90
2018-03-15T23:45:29.471Z,91.00
2018-03-15T23:47:58.539Z,91.10
2018-03-15T23:50:27.588Z,91.00
2018-03-15T23:52:57.414Z,91.30
2018-03-15T23:55:27.222Z,91.00
2018-03-15T23:57:56.283Z,91.00
